Time;durP1;ratioP1;P1;durP2;ratioP2;P2;SDS_P1;SDS_P2;PMS_P1;PMS_P2;Temp;Humidity;BMP_temperature;BMP_pressure;BME280_temperature;BME280_humidity;BME280_pressure;Samples;Min_cycle;Max_cycle;Signal;HPM_P1;HPM_P2
2023/05/26 00:04:12;;;;;;;9.88;6.20;;;;;;;23.22;47.72;100531.66;39832648;29;20046;-78
2023/05/26 00:24:12;;;;;;;8.05;6.60;;;;;;;23.10;48.40;100533.47;39841975;29;20061;-78
2023/05/26 00:44:12;;;;;;;9.88;6.72;;;;;;;23.07;49.01;100532.88;39835887;29;20145;-77
2023/05/26 01:04:13;;;;;;;12.25;6.88;;;;;;;22.99;49.42;100520.34;39869605;29;20395;-77
2023/05/26 01:24:29;;;;;;;8.75;6.45;;;;;;;22.82;49.86;100517.28;39856082;29;20039;-80
2023/05/26 01:44:35;;;;;;;12.43;6.90;;;;;;;22.71;50.13;100514.69;39853261;29;20057;-78
2023/05/26 02:04:36;;;;;;;10.85;6.70;;;;;;;22.59;50.48;100516.50;39845639;29;20054;-78
2023/05/26 02:24:36;;;;;;;9.00;6.30;;;;;;;22.61;50.03;100511.97;39866197;29;20050;-79
2023/05/26 02:44:36;;;;;;;8.32;6.63;;;;;;;22.38;50.38;100508.56;39845524;29;20480;-80
2023/05/26 03:04:37;;;;;;;13.95;6.93;;;;;;;22.28;50.44;100518.16;39854486;29;20046;-80
2023/05/26 03:24:38;;;;;;;9.88;6.68;;;;;;;22.23;50.50;100532.53;39854149;29;20066;-79
2023/05/26 03:44:39;;;;;;;9.77;6.63;;;;;;;22.17;50.52;100534.81;39843804;29;20042;-80
2023/05/26 04:04:39;;;;;;;10.13;6.28;;;;;;;22.28;50.52;100532.16;39841430;29;20053;-89
2023/05/26 04:24:40;;;;;;;10.07;6.43;;;;;;;22.21;50.88;100559.97;39845365;29;20054;-86
2023/05/26 04:44:43;;;;;;;11.38;7.22;;;;;;;22.10;51.34;100562.63;39813615;29;20241;-89
2023/05/26 05:04:43;;;;;;;13.85;7.95;;;;;;;21.95;51.79;100568.16;39825480;29;20086;-87
2023/05/26 05:24:44;;;;;;;12.18;7.00;;;;;;;22.05;51.35;100576.19;39820438;29;20077;-89
2023/05/26 05:44:44;;;;;;;11.75;5.78;;;;;;;22.37;51.48;100578.06;39809557;29;20136;-87
2023/05/26 06:04:45;;;;;;;13.20;5.80;;;;;;;22.51;50.80;100590.22;39827262;29;20407;-82
2023/05/26 06:24:45;;;;;;;10.55;5.95;;;;;;;22.65;50.50;100595.19;39840301;29;20074;-82
2023/05/26 06:44:45;;;;;;;17.50;5.57;;;;;;;22.76;50.21;100594.34;39839733;29;20047;-84
2023/05/26 07:04:46;;;;;;;9.07;5.65;;;;;;;22.78;47.37;100612.72;39819134;29;20056;-83
2023/05/26 07:24:46;;;;;;;;;;;;;;;23.02;47.75;100607.22;39824119;29;20054;-80
2023/05/26 07:44:47;;;;;;;;;;;;;;;23.12;47.38;100613.44;39817522;29;19929;-81
2023/05/26 08:04:47;;;;;;;;;;;;;;;23.21;44.80;100609.22;39827946;29;19975;-81
2023/05/26 08:24:51;;;;;;;;;;;;;;;23.31;44.90;100606.66;39854036;29;20057;-82
2023/05/26 08:44:51;;;;;;;;;;;;;;;23.36;44.61;100607.09;39868618;29;19954;-83
2023/05/26 09:04:52;;;;;;;;;;;;;;;23.55;45.38;100595.00;39823780;29;20403;-80
2023/05/26 09:24:52;;;;;;;;;;;;;;;23.78;43.75;100593.06;39851651;29;20388;-83
2023/05/26 09:44:52;;;;;;;;;;;;;;;24.04;45.42;100593.47;39871313;29;19957;-81
2023/05/26 10:04:53;;;;;;;;;;;;;;;24.26;44.32;100581.84;39856874;29;19974;-83
2023/05/26 10:24:57;;;;;;;;;;;;;;;24.43;44.95;100574.25;39836749;29;20035;-80
2023/05/26 10:44:58;;;;;;;;;;;;;;;24.57;44.92;100567.72;39850545;29;19924;-81
2023/05/26 11:05:01;;;;;;;;;;;;;;;24.73;44.92;100549.53;39848157;29;19924;-81
2023/05/26 11:25:02;;;;;;;;;;;;;;;24.91;43.99;100535.56;39836369;29;19933;-82
2023/05/26 11:45:02;;;;;;;;;;;;;;;25.10;43.38;100519.66;39848532;29;19924;-81
2023/05/26 12:05:35;;;;;;;;;;;;;;;25.35;42.52;100498.00;39835614;29;19929;-84
2023/05/26 12:25:35;;;;;;;;;;;;;;;25.41;42.66;100473.59;39806014;29;19929;-80
2023/05/26 12:45:36;;;;;;;;;;;;;;;25.53;42.84;100445.09;39834520;29;19928;-82
2023/05/26 13:05:36;;;;;;;;;;;;;;;25.68;43.03;100433.03;39862909;29;19966;-82
2023/05/26 13:25:38;;;;;;;;;;;;;;;25.76;42.45;100415.53;39838469;29;19954;-81
2023/05/26 13:45:38;;;;;;;;;;;;;;;25.87;42.28;100407.38;39845769;29;19974;-78
2023/05/26 14:05:38;;;;;;;;;;;;;;;25.97;43.06;100397.53;39819215;29;19974;-77
2023/05/26 14:25:39;;;;;;;;;;;;;;;26.05;43.09;100394.13;39843358;29;19929;-79
2023/05/26 14:45:39;;;;;;;;;;;;;;;26.25;43.97;100370.94;39831334;29;21533;-76
2023/05/26 15:05:40;;;;;;;;;;;;;;;26.30;45.01;100379.28;39827975;29;19928;-81
2023/05/26 15:25:41;;;;;;;;;;;;;;;26.33;45.07;100368.38;39825707;29;19929;-83
2023/05/26 15:45:41;;;;;;;;;;;;;;;26.46;43.89;100377.75;39862468;29;19928;-85
2023/05/26 16:05:44;;;;;;;;;;;;;;;26.51;43.26;100378.97;39844803;29;19982;-91
2023/05/26 16:25:45;;;;;;;;;;;;;;;26.42;42.32;100384.38;39846587;29;20014;-89
2023/05/26 16:45:46;;;;;;;;;;;;;;;26.30;42.79;100407.66;39843870;29;19929;-88
2023/05/26 17:05:53;;;;;;;;;;;;;;;26.21;44.87;100434.13;39835461;29;19933;-83
2023/05/26 17:25:53;;;;;;;;;;;;;;;26.24;46.42;100446.25;39814326;29;19981;-84
2023/05/26 17:46:00;;;;;;;;;;;;;;;26.26;46.25;100464.69;39823060;29;19928;-84
2023/05/26 18:06:00;;;;;;;;;;;;;;;26.19;45.70;100475.88;39847178;29;19940;-82
2023/05/26 18:26:01;;;;;;;;;;;;;;;26.16;45.79;100486.00;39826751;29;19933;-82
2023/05/26 18:46:01;;;;;;;;;;;;;;;26.09;45.58;100511.44;39827997;29;20373;-82
2023/05/26 19:06:01;;;;;;;;;;;;;;;26.06;45.49;100533.75;39819623;29;20009;-83
2023/05/26 19:26:02;;;;;;;;;;;;;;;25.80;44.88;100538.91;39861032;29;20009;-83
2023/05/26 19:46:02;;;;;;;;;;;;;;;25.50;44.48;100554.94;39834029;29;19932;-81
2023/05/26 20:06:02;;;;;;;;;;;;;;;25.29;45.01;100567.47;39857596;29;19928;-82
2023/05/26 20:26:03;;;;;;;;;;;;;;;25.04;45.61;100556.50;39854613;29;20324;-84
2023/05/26 20:46:03;;;;;;;;;;;;;;;24.72;46.47;100579.63;39829674;29;19929;-82
2023/05/26 21:06:03;;;;;;;;;;;;;;;24.50;46.54;100587.75;39824159;29;19936;-79
2023/05/26 21:26:04;;;;;;;;;;;;;;;24.35;46.10;100601.41;39844353;29;19929;-82
2023/05/26 21:46:04;;;;;;;;;;;;;;;24.21;46.21;100604.41;39839468;29;20027;-82
2023/05/26 22:06:04;;;;;;;;;;;;;;;24.06;45.76;100610.06;39837218;29;19929;-82
2023/05/26 22:26:05;;;;;;;;;;;;;;;23.91;45.96;100617.47;39852100;29;19935;-82
2023/05/26 22:46:05;;;;;;;;;;;;;;;23.85;45.78;100604.75;39848257;29;20019;-80
2023/05/26 23:06:06;;;;;;;;;;;;;;;23.69;46.17;100609.69;39851490;29;20366;-80
2023/05/26 23:26:07;;;;;;;;;;;;;;;23.58;45.98;100618.53;39825715;29;19974;-80
2023/05/26 23:46:07;;;;;;;;;;;;;;;23.58;46.28;100616.75;39836234;29;19932;-81
